sensor_id;sensor_type;location;lat;lon;timestamp;noise_LAeq;noise_LA_min;noise_LA_max;noise_LA01;noise_LA95
76339;Laerm;26644;50.248;19.032;2023-05-29T00:00:19;50.15;43.35;64.02;;
76339;Laerm;26644;50.248;19.032;2023-05-29T00:03:27;49.78;44.75;60.31;;
76339;Laerm;26644;50.248;19.032;2023-05-29T00:06:35;52.34;44.40;66.69;;
76339;Laerm;26644;50.248;19.032;2023-05-29T00:09:39;50.71;44.87;67.92;;
76339;Laerm;26644;50.248;19.032;2023-05-29T00:12:45;51.76;44.98;65.72;;
76339;Laerm;26644;50.248;19.032;2023-05-29T00:15:49;48.42;44.30;54.93;;
76339;Laerm;26644;50.248;19.032;2023-05-29T00:18:57;48.19;43.43;52.68;;
76339;Laerm;26644;50.248;19.032;2023-05-29T00:22:01;47.43;43.04;52.61;;
76339;Laerm;26644;50.248;19.032;2023-05-29T00:25:08;48.75;42.91;55.39;;
76339;Laerm;26644;50.248;19.032;2023-05-29T00:28:13;48.47;42.65;53.05;;
76339;Laerm;26644;50.248;19.032;2023-05-29T00:31:18;48.71;43.02;62.85;;
76339;Laerm;26644;50.248;19.032;2023-05-29T00:34:25;48.60;42.77;61.56;;
76339;Laerm;26644;50.248;19.032;2023-05-29T00:37:30;47.49;42.83;61.63;;
76339;Laerm;26644;50.248;19.032;2023-05-29T00:40:34;48.30;44.05;51.88;;
76339;Laerm;26644;50.248;19.032;2023-05-29T00:43:40;47.88;43.49;51.55;;
76339;Laerm;26644;50.248;19.032;2023-05-29T00:46:45;47.73;42.53;53.20;;
76339;Laerm;26644;50.248;19.032;2023-05-29T00:49:55;48.38;44.72;52.90;;
76339;Laerm;26644;50.248;19.032;2023-05-29T00:53:02;48.05;43.41;53.49;;
76339;Laerm;26644;50.248;19.032;2023-05-29T00:56:10;48.82;44.58;53.47;;
76339;Laerm;26644;50.248;19.032;2023-05-29T00:59:16;48.47;44.37;52.98;;
76339;Laerm;26644;50.248;19.032;2023-05-29T01:02:23;49.43;43.52;57.13;;
76339;Laerm;26644;50.248;19.032;2023-05-29T01:05:33;48.68;44.41;52.70;;
76339;Laerm;26644;50.248;19.032;2023-05-29T01:08:40;49.46;45.15;54.52;;
76339;Laerm;26644;50.248;19.032;2023-05-29T01:11:58;49.33;45.10;56.15;;
76339;Laerm;26644;50.248;19.032;2023-05-29T01:15:24;50.37;44.90;55.98;;
76339;Laerm;26644;50.248;19.032;2023-05-29T01:18:43;49.96;45.71;53.95;;
76339;Laerm;26644;50.248;19.032;2023-05-29T01:22:12;49.94;46.07;55.90;;
76339;Laerm;26644;50.248;19.032;2023-05-29T01:25:24;49.68;46.05;55.84;;
76339;Laerm;26644;50.248;19.032;2023-05-29T01:28:45;49.49;44.88;61.39;;
76339;Laerm;26644;50.248;19.032;2023-05-29T01:31:52;49.67;43.98;60.83;;
76339;Laerm;26644;50.248;19.032;2023-05-29T01:34:58;49.24;45.29;57.83;;
76339;Laerm;26644;50.248;19.032;2023-05-29T01:38:03;49.96;46.08;53.83;;
76339;Laerm;26644;50.248;19.032;2023-05-29T01:41:10;50.15;45.41;56.11;;
76339;Laerm;26644;50.248;19.032;2023-05-29T01:44:20;49.91;45.98;56.54;;
76339;Laerm;26644;50.248;19.032;2023-05-29T01:47:26;49.44;45.55;54.02;;
76339;Laerm;26644;50.248;19.032;2023-05-29T01:50:32;51.20;45.91;58.51;;
76339;Laerm;26644;50.248;19.032;2023-05-29T01:53:38;50.55;45.92;55.07;;
76339;Laerm;26644;50.248;19.032;2023-05-29T01:56:47;50.90;46.67;55.11;;
76339;Laerm;26644;50.248;19.032;2023-05-29T01:59:56;51.45;47.64;56.29;;
76339;Laerm;26644;50.248;19.032;2023-05-29T02:03:01;50.73;46.53;55.55;;
76339;Laerm;26644;50.248;19.032;2023-05-29T02:06:06;50.88;46.89;55.37;;
76339;Laerm;26644;50.248;19.032;2023-05-29T02:09:12;50.57;47.33;55.14;;
76339;Laerm;26644;50.248;19.032;2023-05-29T02:12:17;50.53;45.79;57.25;;
76339;Laerm;26644;50.248;19.032;2023-05-29T02:15:25;51.29;47.33;57.08;;
76339;Laerm;26644;50.248;19.032;2023-05-29T02:18:30;51.25;47.47;56.73;;
76339;Laerm;26644;50.248;19.032;2023-05-29T02:21:39;51.54;47.24;60.10;;
76339;Laerm;26644;50.248;19.032;2023-05-29T02:24:44;51.11;47.08;61.83;;
76339;Laerm;26644;50.248;19.032;2023-05-29T02:27:49;51.71;47.62;56.97;;
76339;Laerm;26644;50.248;19.032;2023-05-29T02:30:56;53.10;48.53;67.32;;
76339;Laerm;26644;50.248;19.032;2023-05-29T02:34:01;52.62;49.55;63.37;;
76339;Laerm;26644;50.248;19.032;2023-05-29T02:37:06;52.81;49.48;60.45;;
76339;Laerm;26644;50.248;19.032;2023-05-29T02:40:11;52.53;49.69;55.82;;
76339;Laerm;26644;50.248;19.032;2023-05-29T02:43:16;52.44;49.20;56.58;;
76339;Laerm;26644;50.248;19.032;2023-05-29T02:46:23;52.72;48.95;57.07;;
76339;Laerm;26644;50.248;19.032;2023-05-29T02:49:28;53.90;50.47;57.85;;
76339;Laerm;26644;50.248;19.032;2023-05-29T02:52:34;52.92;49.46;58.02;;
76339;Laerm;26644;50.248;19.032;2023-05-29T02:55:38;53.90;49.74;57.76;;
76339;Laerm;26644;50.248;19.032;2023-05-29T02:58:45;53.47;50.32;66.69;;
76339;Laerm;26644;50.248;19.032;2023-05-29T03:01:52;54.03;50.43;62.50;;
76339;Laerm;26644;50.248;19.032;2023-05-29T03:04:57;54.22;50.48;59.39;;
76339;Laerm;26644;50.248;19.032;2023-05-29T03:08:02;53.50;49.94;65.95;;
76339;Laerm;26644;50.248;19.032;2023-05-29T03:11:07;53.80;50.34;59.22;;
76339;Laerm;26644;50.248;19.032;2023-05-29T03:14:13;53.74;50.71;57.48;;
76339;Laerm;26644;50.248;19.032;2023-05-29T03:17:21;53.73;50.31;64.90;;
76339;Laerm;26644;50.248;19.032;2023-05-29T03:20:26;54.72;51.04;64.28;;
76339;Laerm;26644;50.248;19.032;2023-05-29T03:23:34;56.07;50.87;66.09;;
76339;Laerm;26644;50.248;19.032;2023-05-29T03:26:39;54.53;51.01;60.12;;
76339;Laerm;26644;50.248;19.032;2023-05-29T03:29:45;54.87;51.76;62.11;;
76339;Laerm;26644;50.248;19.032;2023-05-29T03:32:52;55.21;51.76;60.77;;
76339;Laerm;26644;50.248;19.032;2023-05-29T03:36:09;55.73;52.25;64.03;;
76339;Laerm;26644;50.248;19.032;2023-05-29T03:39:15;56.28;53.24;64.99;;
76339;Laerm;26644;50.248;19.032;2023-05-29T03:42:23;56.44;53.49;62.47;;
76339;Laerm;26644;50.248;19.032;2023-05-29T03:45:28;56.44;52.75;70.41;;
76339;Laerm;26644;50.248;19.032;2023-05-29T03:48:37;56.11;53.22;62.82;;
76339;Laerm;26644;50.248;19.032;2023-05-29T03:51:42;56.50;53.01;59.75;;
76339;Laerm;26644;50.248;19.032;2023-05-29T03:54:47;56.56;52.87;64.51;;
76339;Laerm;26644;50.248;19.032;2023-05-29T03:57:52;55.53;52.57;62.55;;
76339;Laerm;26644;50.248;19.032;2023-05-29T04:00:58;55.58;52.52;59.53;;
76339;Laerm;26644;50.248;19.032;2023-05-29T04:04:07;55.78;52.03;70.00;;
76339;Laerm;26644;50.248;19.032;2023-05-29T04:07:12;55.67;52.62;62.03;;
76339;Laerm;26644;50.248;19.032;2023-05-29T04:10:19;56.53;52.97;65.20;;
76339;Laerm;26644;50.248;19.032;2023-05-29T04:13:24;56.06;52.94;67.73;;
76339;Laerm;26644;50.248;19.032;2023-05-29T04:16:28;56.84;52.92;68.18;;
76339;Laerm;26644;50.248;19.032;2023-05-29T04:19:36;56.54;52.95;66.43;;
76339;Laerm;26644;50.248;19.032;2023-05-29T04:22:41;58.16;53.27;68.70;;
76339;Laerm;26644;50.248;19.032;2023-05-29T04:25:47;59.00;53.04;72.03;;
76339;Laerm;26644;50.248;19.032;2023-05-29T04:28:58;56.33;52.73;63.18;;
76339;Laerm;26644;50.248;19.032;2023-05-29T04:32:04;55.73;52.40;69.62;;
76339;Laerm;26644;50.248;19.032;2023-05-29T04:35:12;54.90;52.21;57.90;;
76339;Laerm;26644;50.248;19.032;2023-05-29T04:38:27;54.89;51.32;63.66;;
76339;Laerm;26644;50.248;19.032;2023-05-29T04:41:33;54.89;51.79;60.18;;
76339;Laerm;26644;50.248;19.032;2023-05-29T04:44:41;54.48;51.62;63.18;;
76339;Laerm;26644;50.248;19.032;2023-05-29T04:47:45;54.56;52.14;60.30;;
76339;Laerm;26644;50.248;19.032;2023-05-29T04:50:54;54.16;51.03;59.46;;
76339;Laerm;26644;50.248;19.032;2023-05-29T04:54:04;53.97;51.15;62.63;;
76339;Laerm;26644;50.248;19.032;2023-05-29T04:57:11;54.00;51.34;59.13;;
76339;Laerm;26644;50.248;19.032;2023-05-29T05:00:18;54.93;51.17;70.67;;
76339;Laerm;26644;50.248;19.032;2023-05-29T05:03:23;53.90;50.90;62.55;;
76339;Laerm;26644;50.248;19.032;2023-05-29T05:06:31;53.56;50.53;59.68;;
76339;Laerm;26644;50.248;19.032;2023-05-29T05:09:36;53.83;50.74;63.14;;
76339;Laerm;26644;50.248;19.032;2023-05-29T05:12:45;53.97;50.73;61.12;;
76339;Laerm;26644;50.248;19.032;2023-05-29T05:15:52;54.21;50.39;68.10;;
76339;Laerm;26644;50.248;19.032;2023-05-29T05:18:57;55.38;50.71;67.81;;
76339;Laerm;26644;50.248;19.032;2023-05-29T05:22:05;57.84;51.95;72.69;;
76339;Laerm;26644;50.248;19.032;2023-05-29T05:25:10;55.80;50.50;68.31;;
76339;Laerm;26644;50.248;19.032;2023-05-29T05:28:15;53.59;49.72;69.74;;
76339;Laerm;26644;50.248;19.032;2023-05-29T05:31:20;52.75;49.55;55.73;;
76339;Laerm;26644;50.248;19.032;2023-05-29T05:34:25;53.41;49.69;64.47;;
76339;Laerm;26644;50.248;19.032;2023-05-29T05:37:32;53.69;48.95;73.72;;
76339;Laerm;26644;50.248;19.032;2023-05-29T05:40:37;53.32;48.75;64.96;;
76339;Laerm;26644;50.248;19.032;2023-05-29T05:43:50;52.95;50.04;60.48;;
76339;Laerm;26644;50.248;19.032;2023-05-29T05:47:05;52.69;49.58;63.09;;
76339;Laerm;26644;50.248;19.032;2023-05-29T05:50:10;52.45;49.44;57.29;;
76339;Laerm;26644;50.248;19.032;2023-05-29T05:53:18;53.11;49.65;64.79;;
76339;Laerm;26644;50.248;19.032;2023-05-29T05:56:22;57.90;49.18;74.77;;
76339;Laerm;26644;50.248;19.032;2023-05-29T05:59:28;64.44;49.86;94.74;;
76339;Laerm;26644;50.248;19.032;2023-05-29T06:02:32;52.39;49.23;61.08;;
76339;Laerm;26644;50.248;19.032;2023-05-29T06:05:37;53.27;49.22;69.86;;
76339;Laerm;26644;50.248;19.032;2023-05-29T06:08:47;55.14;49.00;71.33;;
76339;Laerm;26644;50.248;19.032;2023-05-29T06:11:52;56.64;48.41;63.39;;
76339;Laerm;26644;50.248;19.032;2023-05-29T06:14:58;52.44;47.79;67.02;;
76339;Laerm;26644;50.248;19.032;2023-05-29T06:18:05;52.24;48.44;64.05;;
76339;Laerm;26644;50.248;19.032;2023-05-29T06:21:09;52.87;49.48;64.06;;
76339;Laerm;26644;50.248;19.032;2023-05-29T06:24:23;52.96;49.19;62.00;;
76339;Laerm;26644;50.248;19.032;2023-05-29T06:27:32;51.89;48.94;62.67;;
76339;Laerm;26644;50.248;19.032;2023-05-29T06:30:39;52.56;49.10;60.19;;
76339;Laerm;26644;50.248;19.032;2023-05-29T06:33:44;52.60;48.86;67.25;;
76339;Laerm;26644;50.248;19.032;2023-05-29T06:36:50;53.32;49.45;69.33;;
76339;Laerm;26644;50.248;19.032;2023-05-29T06:39:57;55.14;49.43;72.95;;
76339;Laerm;26644;50.248;19.032;2023-05-29T06:43:03;55.61;49.35;73.45;;
76339;Laerm;26644;50.248;19.032;2023-05-29T06:46:15;53.42;47.57;71.12;;
76339;Laerm;26644;50.248;19.032;2023-05-29T06:49:20;52.88;48.65;64.99;;
76339;Laerm;26644;50.248;19.032;2023-05-29T06:52:25;52.29;48.76;61.10;;
76339;Laerm;26644;50.248;19.032;2023-05-29T06:55:52;51.98;48.97;62.96;;
76339;Laerm;26644;50.248;19.032;2023-05-29T06:58:56;52.22;48.46;59.60;;
76339;Laerm;26644;50.248;19.032;2023-05-29T07:02:04;52.45;48.69;64.00;;
76339;Laerm;26644;50.248;19.032;2023-05-29T07:05:09;52.18;48.18;56.50;;
76339;Laerm;26644;50.248;19.032;2023-05-29T07:08:15;52.35;49.11;66.40;;
76339;Laerm;26644;50.248;19.032;2023-05-29T07:11:22;52.27;48.84;69.37;;
76339;Laerm;26644;50.248;19.032;2023-05-29T07:14:28;52.34;48.54;67.33;;
76339;Laerm;26644;50.248;19.032;2023-05-29T07:17:32;52.16;48.97;59.27;;
76339;Laerm;26644;50.248;19.032;2023-05-29T07:20:51;51.86;48.28;60.83;;
76339;Laerm;26644;50.248;19.032;2023-05-29T07:23:56;52.88;48.53;71.51;;
76339;Laerm;26644;50.248;19.032;2023-05-29T07:27:05;52.03;48.38;66.45;;
76339;Laerm;26644;50.248;19.032;2023-05-29T07:30:12;51.91;48.69;62.27;;
76339;Laerm;26644;50.248;19.032;2023-05-29T07:33:19;51.88;48.87;57.73;;
76339;Laerm;26644;50.248;19.032;2023-05-29T07:36:29;51.47;47.87;57.29;;
76339;Laerm;26644;50.248;19.032;2023-05-29T07:39:37;51.52;47.88;57.67;;
76339;Laerm;26644;50.248;19.032;2023-05-29T07:43:03;53.24;48.36;67.67;;
76339;Laerm;26644;50.248;19.032;2023-05-29T07:46:22;52.92;49.06;64.44;;
76339;Laerm;26644;50.248;19.032;2023-05-29T07:49:32;52.35;48.24;65.61;;
76339;Laerm;26644;50.248;19.032;2023-05-29T07:52:38;52.60;49.00;62.70;;
76339;Laerm;26644;50.248;19.032;2023-05-29T07:55:43;52.07;47.98;61.95;;
76339;Laerm;26644;50.248;19.032;2023-05-29T07:58:51;51.27;47.50;56.01;;
76339;Laerm;26644;50.248;19.032;2023-05-29T08:01:57;51.66;47.74;55.92;;
76339;Laerm;26644;50.248;19.032;2023-05-29T08:05:20;52.39;48.10;64.03;;
76339;Laerm;26644;50.248;19.032;2023-05-29T08:08:25;52.44;47.86;66.77;;
76339;Laerm;26644;50.248;19.032;2023-05-29T08:11:31;52.26;48.61;67.59;;
76339;Laerm;26644;50.248;19.032;2023-05-29T08:14:38;52.18;49.10;59.89;;
76339;Laerm;26644;50.248;19.032;2023-05-29T08:17:44;52.63;48.52;65.26;;
76339;Laerm;26644;50.248;19.032;2023-05-29T08:20:48;51.50;47.43;61.24;;
76339;Laerm;26644;50.248;19.032;2023-05-29T08:23:54;59.90;47.87;81.62;;
76339;Laerm;26644;50.248;19.032;2023-05-29T08:26:59;55.52;48.75;81.92;;
76339;Laerm;26644;50.248;19.032;2023-05-29T08:30:09;53.20;47.51;78.45;;
76339;Laerm;26644;50.248;19.032;2023-05-29T08:33:14;51.29;47.43;64.36;;
76339;Laerm;26644;50.248;19.032;2023-05-29T08:36:20;51.42;47.63;61.74;;
76339;Laerm;26644;50.248;19.032;2023-05-29T08:39:25;52.55;48.44;66.39;;
76339;Laerm;26644;50.248;19.032;2023-05-29T08:42:36;52.86;48.22;69.31;;
76339;Laerm;26644;50.248;19.032;2023-05-29T08:45:53;51.88;48.14;65.56;;
76339;Laerm;26644;50.248;19.032;2023-05-29T08:49:01;51.70;47.85;64.38;;
76339;Laerm;26644;50.248;19.032;2023-05-29T08:52:12;51.94;48.39;63.88;;
76339;Laerm;26644;50.248;19.032;2023-05-29T08:55:19;52.47;49.22;66.35;;
76339;Laerm;26644;50.248;19.032;2023-05-29T08:58:26;53.19;49.76;67.45;;
76339;Laerm;26644;50.248;19.032;2023-05-29T09:01:34;53.91;49.40;74.07;;
76339;Laerm;26644;50.248;19.032;2023-05-29T09:04:41;52.76;47.99;64.30;;
76339;Laerm;26644;50.248;19.032;2023-05-29T09:07:47;53.35;49.02;68.49;;
76339;Laerm;26644;50.248;19.032;2023-05-29T09:10:52;53.15;49.16;60.92;;
76339;Laerm;26644;50.248;19.032;2023-05-29T09:13:57;53.30;49.45;62.79;;
76339;Laerm;26644;50.248;19.032;2023-05-29T09:17:07;51.63;47.89;60.17;;
76339;Laerm;26644;50.248;19.032;2023-05-29T09:20:17;53.12;49.02;61.59;;
76339;Laerm;26644;50.248;19.032;2023-05-29T09:23:26;52.55;48.18;63.33;;
76339;Laerm;26644;50.248;19.032;2023-05-29T09:26:32;52.62;47.99;63.43;;
76339;Laerm;26644;50.248;19.032;2023-05-29T09:29:39;53.88;48.73;67.59;;
76339;Laerm;26644;50.248;19.032;2023-05-29T09:32:53;52.82;47.69;68.21;;
76339;Laerm;26644;50.248;19.032;2023-05-29T09:35:59;51.93;47.64;59.53;;
76339;Laerm;26644;50.248;19.032;2023-05-29T09:39:05;51.62;47.67;61.68;;
76339;Laerm;26644;50.248;19.032;2023-05-29T09:42:10;52.69;48.16;67.13;;
76339;Laerm;26644;50.248;19.032;2023-05-29T09:45:17;51.71;47.47;57.94;;
76339;Laerm;26644;50.248;19.032;2023-05-29T09:48:26;53.09;49.58;60.59;;
76339;Laerm;26644;50.248;19.032;2023-05-29T09:51:32;53.60;50.35;59.40;;
76339;Laerm;26644;50.248;19.032;2023-05-29T09:54:38;52.34;48.38;56.91;;
76339;Laerm;26644;50.248;19.032;2023-05-29T09:57:47;52.43;48.35;61.59;;
76339;Laerm;26644;50.248;19.032;2023-05-29T10:00:53;52.10;48.60;60.32;;
76339;Laerm;26644;50.248;19.032;2023-05-29T10:04:02;51.75;48.07;64.05;;
76339;Laerm;26644;50.248;19.032;2023-05-29T10:07:15;50.71;47.10;58.03;;
76339;Laerm;26644;50.248;19.032;2023-05-29T10:10:26;51.92;46.29;59.93;;
76339;Laerm;26644;50.248;19.032;2023-05-29T10:13:38;51.46;47.39;58.99;;
76339;Laerm;26644;50.248;19.032;2023-05-29T10:16:47;52.02;47.47;60.53;;
76339;Laerm;26644;50.248;19.032;2023-05-29T10:19:58;51.30;47.39;62.77;;
76339;Laerm;26644;50.248;19.032;2023-05-29T10:23:08;52.83;48.10;69.30;;
76339;Laerm;26644;50.248;19.032;2023-05-29T10:26:19;53.10;48.81;60.56;;
76339;Laerm;26644;50.248;19.032;2023-05-29T10:29:35;53.04;49.29;63.47;;
76339;Laerm;26644;50.248;19.032;2023-05-29T10:33:03;53.60;48.70;63.95;;
76339;Laerm;26644;50.248;19.032;2023-05-29T10:36:17;52.60;47.33;79.59;;
76339;Laerm;26644;50.248;19.032;2023-05-29T10:39:23;51.63;46.95;64.70;;
76339;Laerm;26644;50.248;19.032;2023-05-29T10:42:46;50.80;46.98;67.53;;
76339;Laerm;26644;50.248;19.032;2023-05-29T10:45:50;51.56;46.80;62.83;;
76339;Laerm;26644;50.248;19.032;2023-05-29T10:48:56;51.23;47.58;61.34;;
76339;Laerm;26644;50.248;19.032;2023-05-29T10:52:05;52.17;48.13;64.65;;
76339;Laerm;26644;50.248;19.032;2023-05-29T10:55:16;51.81;47.37;64.01;;
76339;Laerm;26644;50.248;19.032;2023-05-29T10:58:25;52.15;48.26;62.77;;
76339;Laerm;26644;50.248;19.032;2023-05-29T11:01:31;52.97;47.83;68.53;;
76339;Laerm;26644;50.248;19.032;2023-05-29T11:04:36;53.30;48.86;68.06;;
76339;Laerm;26644;50.248;19.032;2023-05-29T11:07:56;52.44;48.79;61.71;;
76339;Laerm;26644;50.248;19.032;2023-05-29T11:11:03;52.21;47.90;63.09;;
76339;Laerm;26644;50.248;19.032;2023-05-29T11:14:08;51.68;48.38;57.04;;
76339;Laerm;26644;50.248;19.032;2023-05-29T11:17:45;54.95;47.10;71.20;;
76339;Laerm;26644;50.248;19.032;2023-05-29T11:21:03;53.97;47.47;71.65;;
76339;Laerm;26644;50.248;19.032;2023-05-29T11:24:22;51.39;47.03;67.44;;
76339;Laerm;26644;50.248;19.032;2023-05-29T11:27:29;50.63;46.90;57.67;;
76339;Laerm;26644;50.248;19.032;2023-05-29T11:30:45;50.71;46.24;58.53;;
76339;Laerm;26644;50.248;19.032;2023-05-29T11:33:54;51.79;47.89;61.49;;
76339;Laerm;26644;50.248;19.032;2023-05-29T11:36:59;50.98;47.17;57.19;;
76339;Laerm;26644;50.248;19.032;2023-05-29T11:40:09;50.98;46.86;68.67;;
76339;Laerm;26644;50.248;19.032;2023-05-29T11:43:14;51.79;48.04;61.28;;
76339;Laerm;26644;50.248;19.032;2023-05-29T11:46:20;51.69;48.05;59.27;;
76339;Laerm;26644;50.248;19.032;2023-05-29T11:49:28;52.31;47.87;62.30;;
76339;Laerm;26644;50.248;19.032;2023-05-29T11:52:45;51.06;46.97;66.31;;
76339;Laerm;26644;50.248;19.032;2023-05-29T11:55:52;51.70;47.16;61.88;;
76339;Laerm;26644;50.248;19.032;2023-05-29T11:58:59;51.92;48.32;61.71;;
76339;Laerm;26644;50.248;19.032;2023-05-29T12:02:07;52.94;48.95;66.06;;
76339;Laerm;26644;50.248;19.032;2023-05-29T12:05:15;52.44;48.82;73.51;;
76339;Laerm;26644;50.248;19.032;2023-05-29T12:08:22;51.37;47.36;61.59;;
76339;Laerm;26644;50.248;19.032;2023-05-29T12:11:31;50.75;47.81;62.63;;
76339;Laerm;26644;50.248;19.032;2023-05-29T12:14:36;52.08;47.74;69.16;;
76339;Laerm;26644;50.248;19.032;2023-05-29T12:17:41;52.17;48.00;64.67;;
76339;Laerm;26644;50.248;19.032;2023-05-29T12:20:46;51.68;48.18;73.22;;
76339;Laerm;26644;50.248;19.032;2023-05-29T12:23:53;50.82;47.23;59.14;;
76339;Laerm;26644;50.248;19.032;2023-05-29T12:27:04;50.99;47.22;57.48;;
76339;Laerm;26644;50.248;19.032;2023-05-29T12:30:12;50.91;47.95;59.75;;
76339;Laerm;26644;50.248;19.032;2023-05-29T12:33:28;50.53;47.38;59.38;;
76339;Laerm;26644;50.248;19.032;2023-05-29T12:36:34;51.20;48.07;60.19;;
76339;Laerm;26644;50.248;19.032;2023-05-29T12:39:41;51.61;47.61;59.30;;
76339;Laerm;26644;50.248;19.032;2023-05-29T12:42:55;51.67;47.46;62.36;;
76339;Laerm;26644;50.248;19.032;2023-05-29T12:46:00;51.87;47.34;64.52;;
76339;Laerm;26644;50.248;19.032;2023-05-29T12:49:15;51.58;47.16;61.37;;
76339;Laerm;26644;50.248;19.032;2023-05-29T12:52:24;50.82;47.31;56.37;;
76339;Laerm;26644;50.248;19.032;2023-05-29T12:55:31;52.38;48.63;64.35;;
76339;Laerm;26644;50.248;19.032;2023-05-29T12:58:40;51.75;47.89;63.90;;
76339;Laerm;26644;50.248;19.032;2023-05-29T13:01:46;53.96;50.12;64.04;;
76339;Laerm;26644;50.248;19.032;2023-05-29T13:04:50;54.16;48.86;66.82;;
76339;Laerm;26644;50.248;19.032;2023-05-29T13:07:55;52.37;48.39;68.26;;
76339;Laerm;26644;50.248;19.032;2023-05-29T13:11:01;51.97;47.89;67.21;;
76339;Laerm;26644;50.248;19.032;2023-05-29T13:14:09;52.83;48.18;65.43;;
76339;Laerm;26644;50.248;19.032;2023-05-29T13:17:13;52.19;48.06;68.01;;
76339;Laerm;26644;50.248;19.032;2023-05-29T13:20:21;52.49;49.01;62.64;;
76339;Laerm;26644;50.248;19.032;2023-05-29T13:23:25;50.71;47.08;62.69;;
76339;Laerm;26644;50.248;19.032;2023-05-29T13:26:31;50.83;46.51;64.63;;
76339;Laerm;26644;50.248;19.032;2023-05-29T13:29:38;51.33;46.79;63.69;;
76339;Laerm;26644;50.248;19.032;2023-05-29T13:32:43;52.04;48.19;60.46;;
76339;Laerm;26644;50.248;19.032;2023-05-29T13:35:48;51.47;47.70;65.61;;
76339;Laerm;26644;50.248;19.032;2023-05-29T13:38:53;52.27;48.27;63.74;;
76339;Laerm;26644;50.248;19.032;2023-05-29T13:41:58;52.12;48.40;59.99;;
76339;Laerm;26644;50.248;19.032;2023-05-29T13:45:07;53.03;48.28;64.04;;
76339;Laerm;26644;50.248;19.032;2023-05-29T13:48:13;52.20;47.56;72.10;;
76339;Laerm;26644;50.248;19.032;2023-05-29T13:51:18;51.45;47.75;59.28;;
76339;Laerm;26644;50.248;19.032;2023-05-29T13:54:23;51.48;48.04;58.59;;
76339;Laerm;26644;50.248;19.032;2023-05-29T13:57:29;51.48;47.27;57.30;;
76339;Laerm;26644;50.248;19.032;2023-05-29T14:00:36;51.11;47.36;57.59;;
76339;Laerm;26644;50.248;19.032;2023-05-29T14:03:41;52.07;47.98;61.30;;
76339;Laerm;26644;50.248;19.032;2023-05-29T14:06:45;52.71;48.25;70.14;;
76339;Laerm;26644;50.248;19.032;2023-05-29T14:09:51;52.90;49.14;63.16;;
76339;Laerm;26644;50.248;19.032;2023-05-29T14:12:55;51.92;47.83;61.32;;
76339;Laerm;26644;50.248;19.032;2023-05-29T14:16:03;51.35;48.26;60.39;;
76339;Laerm;26644;50.248;19.032;2023-05-29T14:19:07;52.41;48.23;59.39;;
76339;Laerm;26644;50.248;19.032;2023-05-29T14:22:12;51.65;47.77;57.30;;
76339;Laerm;26644;50.248;19.032;2023-05-29T14:25:17;51.91;48.20;62.62;;
76339;Laerm;26644;50.248;19.032;2023-05-29T14:28:22;51.63;48.09;59.94;;
76339;Laerm;26644;50.248;19.032;2023-05-29T14:31:29;53.15;48.33;70.59;;
76339;Laerm;26644;50.248;19.032;2023-05-29T14:34:34;54.13;48.01;74.17;;
76339;Laerm;26644;50.248;19.032;2023-05-29T14:37:39;52.11;48.93;63.13;;
76339;Laerm;26644;50.248;19.032;2023-05-29T14:40:44;52.30;48.87;73.86;;
76339;Laerm;26644;50.248;19.032;2023-05-29T14:43:48;52.96;48.78;64.23;;
76339;Laerm;26644;50.248;19.032;2023-05-29T14:46:56;52.94;47.43;68.37;;
76339;Laerm;26644;50.248;19.032;2023-05-29T14:50:01;51.88;48.01;63.69;;
76339;Laerm;26644;50.248;19.032;2023-05-29T14:53:06;52.85;47.95;68.27;;
76339;Laerm;26644;50.248;19.032;2023-05-29T14:56:10;52.37;48.26;69.27;;
76339;Laerm;26644;50.248;19.032;2023-05-29T14:59:16;51.51;47.21;71.50;;
76339;Laerm;26644;50.248;19.032;2023-05-29T15:02:23;51.37;46.88;66.29;;
76339;Laerm;26644;50.248;19.032;2023-05-29T15:05:28;51.48;47.94;66.40;;
76339;Laerm;26644;50.248;19.032;2023-05-29T15:08:33;51.11;45.92;69.62;;
76339;Laerm;26644;50.248;19.032;2023-05-29T15:11:38;51.45;47.20;62.74;;
76339;Laerm;26644;50.248;19.032;2023-05-29T15:14:43;51.10;47.42;69.11;;
76339;Laerm;26644;50.248;19.032;2023-05-29T15:17:51;52.96;48.46;64.81;;
76339;Laerm;26644;50.248;19.032;2023-05-29T15:20:57;52.40;48.68;64.38;;
76339;Laerm;26644;50.248;19.032;2023-05-29T15:24:04;58.81;48.97;75.53;;
76339;Laerm;26644;50.248;19.032;2023-05-29T15:27:08;52.03;48.27;63.93;;
76339;Laerm;26644;50.248;19.032;2023-05-29T15:30:17;52.11;48.58;61.13;;
76339;Laerm;26644;50.248;19.032;2023-05-29T15:33:25;53.89;48.37;66.46;;
76339;Laerm;26644;50.248;19.032;2023-05-29T15:36:30;51.40;47.86;60.99;;
76339;Laerm;26644;50.248;19.032;2023-05-29T15:39:35;51.27;47.12;58.14;;
76339;Laerm;26644;50.248;19.032;2023-05-29T15:42:40;51.99;47.85;61.65;;
76339;Laerm;26644;50.248;19.032;2023-05-29T15:45:45;52.84;48.87;64.86;;
76339;Laerm;26644;50.248;19.032;2023-05-29T15:48:53;52.27;47.80;60.56;;
76339;Laerm;26644;50.248;19.032;2023-05-29T15:51:58;51.36;47.13;67.25;;
76339;Laerm;26644;50.248;19.032;2023-05-29T15:55:04;51.77;46.82;73.19;;
76339;Laerm;26644;50.248;19.032;2023-05-29T15:58:09;51.64;47.49;71.03;;
76339;Laerm;26644;50.248;19.032;2023-05-29T16:01:14;52.09;47.48;60.82;;
76339;Laerm;26644;50.248;19.032;2023-05-29T16:04:21;52.59;48.96;69.70;;
76339;Laerm;26644;50.248;19.032;2023-05-29T16:07:26;51.62;47.36;63.78;;
76339;Laerm;26644;50.248;19.032;2023-05-29T16:10:30;51.61;47.46;60.73;;
76339;Laerm;26644;50.248;19.032;2023-05-29T16:13:36;58.11;47.50;74.89;;
76339;Laerm;26644;50.248;19.032;2023-05-29T16:16:40;59.96;49.86;73.10;;
76339;Laerm;26644;50.248;19.032;2023-05-29T16:19:48;53.20;48.77;62.87;;
76339;Laerm;26644;50.248;19.032;2023-05-29T16:22:56;52.59;47.53;67.31;;
76339;Laerm;26644;50.248;19.032;2023-05-29T16:26:01;55.90;48.07;69.26;;
76339;Laerm;26644;50.248;19.032;2023-05-29T16:29:06;52.35;47.27;66.60;;
76339;Laerm;26644;50.248;19.032;2023-05-29T16:32:11;51.66;48.45;59.35;;
76339;Laerm;26644;50.248;19.032;2023-05-29T16:35:19;51.91;46.97;65.03;;
76339;Laerm;26644;50.248;19.032;2023-05-29T16:38:24;52.69;48.17;64.66;;
76339;Laerm;26644;50.248;19.032;2023-05-29T16:41:29;52.14;48.66;65.69;;
76339;Laerm;26644;50.248;19.032;2023-05-29T16:44:34;52.75;47.99;63.87;;
76339;Laerm;26644;50.248;19.032;2023-05-29T16:47:38;51.23;47.56;63.53;;
76339;Laerm;26644;50.248;19.032;2023-05-29T16:50:46;53.17;47.46;73.31;;
76339;Laerm;26644;50.248;19.032;2023-05-29T16:53:52;52.40;46.71;68.88;;
76339;Laerm;26644;50.248;19.032;2023-05-29T16:56:57;51.94;48.06;67.50;;
76339;Laerm;26644;50.248;19.032;2023-05-29T17:00:03;51.85;46.94;65.97;;
76339;Laerm;26644;50.248;19.032;2023-05-29T17:03:08;52.83;47.53;72.57;;
76339;Laerm;26644;50.248;19.032;2023-05-29T17:06:15;51.22;47.28;63.89;;
76339;Laerm;26644;50.248;19.032;2023-05-29T17:09:20;51.51;46.29;65.65;;
76339;Laerm;26644;50.248;19.032;2023-05-29T17:12:28;50.67;47.74;60.60;;